createdAt,value
2023-05-19T00:01:20.733Z,100409.91
2023-05-19T00:05:33.823Z,100413.59
2023-05-19T00:09:47.031Z,100414.63
2023-05-19T00:14:01.081Z,100418.59
2023-05-19T00:18:14.370Z,100427.41
2023-05-19T00:22:26.904Z,100428.28
2023-05-19T00:26:39.370Z,100433.06
2023-05-19T00:30:52.541Z,100425.22
2023-05-19T00:35:05.302Z,100421.56
2023-05-19T00:39:17.626Z,100416.91
2023-05-19T00:43:34.669Z,100421.28
2023-05-19T00:47:47.186Z,100417.38
2023-05-19T00:52:01.842Z,100413.06
2023-05-19T00:56:15.957Z,100410.53
2023-05-19T01:00:28.606Z,100418.75
2023-05-19T01:04:42.129Z,100408.31
2023-05-19T01:08:54.824Z,100412.97
2023-05-19T01:13:08.370Z,100410.81
2023-05-19T01:17:27.501Z,100411.47
2023-05-19T01:22:07.850Z,100409.25
2023-05-19T01:26:35.327Z,100420.03
2023-05-19T01:30:54.854Z,100421.31
2023-05-19T01:35:09.729Z,100417.25
2023-05-19T01:39:23.490Z,100419.03
2023-05-19T01:43:36.500Z,100411.13
2023-05-19T01:47:53.789Z,100424.38
2023-05-19T01:52:07.492Z,100421.84
2023-05-19T01:56:33.452Z,100420.31
2023-05-19T02:00:54.399Z,100426.56
2023-05-19T02:05:38.091Z,100420.94
2023-05-19T02:10:06.464Z,100420.16
2023-05-19T02:14:25.919Z,100413.97
2023-05-19T02:18:38.330Z,100426.72
2023-05-19T02:22:52.545Z,100416.38
2023-05-19T02:27:05.303Z,100421.69
2023-05-19T02:31:17.781Z,100413.81
2023-05-19T02:35:30.294Z,100425.56
2023-05-19T02:39:43.212Z,100427.88
2023-05-19T02:43:56.053Z,100436.28
2023-05-19T02:48:08.739Z,100445.25
2023-05-19T02:52:21.440Z,100440.22
2023-05-19T02:56:34.017Z,100443.03
2023-05-19T03:00:46.526Z,100448.13
2023-05-19T03:04:58.891Z,100438.88
2023-05-19T03:09:13.465Z,100445.38
2023-05-19T03:13:26.021Z,100440.44
2023-05-19T03:17:39.659Z,100443.13
2023-05-19T03:21:55.847Z,100445.66
2023-05-19T03:26:08.350Z,100450.19
2023-05-19T03:30:21.033Z,100458.13
2023-05-19T03:34:45.272Z,100451.88
2023-05-19T03:38:59.029Z,100454.31
2023-05-19T03:43:11.680Z,100456.81
2023-05-19T03:47:32.537Z,100463.91
2023-05-19T03:51:53.401Z,100462.44
2023-05-19T03:56:18.415Z,100466.22
2023-05-19T04:00:31.246Z,100464.16
2023-05-19T04:04:43.759Z,100462.94
2023-05-19T04:08:57.330Z,100473.53
2023-05-19T04:13:09.976Z,100467.16
2023-05-19T04:17:26.617Z,100474.72
2023-05-19T04:21:40.251Z,100479.78
2023-05-19T04:25:54.467Z,100479.53
2023-05-19T04:30:07.615Z,100472.25
2023-05-19T04:34:20.909Z,100473.31
2023-05-19T04:38:33.767Z,100477.53
2023-05-19T04:42:47.081Z,100488.56
2023-05-19T04:47:00.489Z,100489.13
2023-05-19T04:51:14.651Z,100482.31
2023-05-19T04:55:27.412Z,100488.25
2023-05-19T04:59:42.455Z,100504.38
2023-05-19T05:03:59.210Z,100487.28
2023-05-19T05:08:12.404Z,100492.94
2023-05-19T05:12:28.422Z,100488.19
2023-05-19T05:16:41.259Z,100489.38
2023-05-19T05:21:00.202Z,100487.19
2023-05-19T05:25:13.779Z,100494.97
2023-05-19T05:29:26.526Z,100489.31
2023-05-19T05:33:39.865Z,100482.97
2023-05-19T05:37:53.383Z,100485.59
2023-05-19T05:42:06.152Z,100487.81
2023-05-19T05:46:18.874Z,100497.91
2023-05-19T05:50:31.916Z,100497.50
2023-05-19T05:54:44.797Z,100503.47
2023-05-19T05:58:58.045Z,100504.56
2023-05-19T06:03:12.371Z,100500.72
2023-05-19T06:07:24.926Z,100503.38
2023-05-19T06:11:37.832Z,100493.31
2023-05-19T06:15:52.675Z,100489.59
2023-05-19T06:20:10.928Z,100495.44
2023-05-19T06:24:23.538Z,100491.50
2023-05-19T06:28:36.133Z,100495.00
2023-05-19T06:32:48.763Z,100495.44
2023-05-19T06:37:02.701Z,100495.53
2023-05-19T06:41:16.877Z,100491.63
2023-05-19T06:45:29.585Z,100485.41
2023-05-19T06:49:43.439Z,100483.75
2023-05-19T06:53:55.909Z,100490.81
2023-05-19T06:58:09.332Z,100482.00
2023-05-19T07:02:21.828Z,100482.69
2023-05-19T07:06:35.286Z,100490.84
2023-05-19T07:10:48.269Z,100479.28
2023-05-19T07:15:02.541Z,100479.94
2023-05-19T07:19:15.377Z,100472.13
2023-05-19T07:23:29.997Z,100468.81
2023-05-19T07:27:42.390Z,100466.69
2023-05-19T07:31:58.212Z,100465.94
2023-05-19T07:36:10.798Z,100469.81
2023-05-19T07:40:23.257Z,100454.34
2023-05-19T07:44:35.678Z,100462.25
2023-05-19T07:48:48.349Z,100454.44
2023-05-19T07:53:00.720Z,100453.25
2023-05-19T07:57:14.799Z,100447.59
2023-05-19T08:01:27.331Z,100452.25
2023-05-19T08:05:39.745Z,100450.22
2023-05-19T08:09:52.246Z,100457.53
2023-05-19T08:14:04.701Z,100451.09
2023-05-19T08:18:17.054Z,100448.53
2023-05-19T08:22:29.429Z,100453.28
2023-05-19T08:26:42.079Z,100455.16
2023-05-19T08:30:54.604Z,100449.56
2023-05-19T08:35:07.926Z,100470.25
2023-05-19T08:39:24.548Z,100463.56
2023-05-19T08:43:37.399Z,100456.59
2023-05-19T08:47:51.789Z,100467.53
2023-05-19T08:52:36.073Z,100460.72
2023-05-19T08:56:49.207Z,100455.56
2023-05-19T09:01:04.507Z,100464.97
2023-05-19T09:05:20.977Z,100458.94
2023-05-19T09:09:33.483Z,100461.03
2023-05-19T09:13:46.358Z,100461.63
2023-05-19T09:18:17.687Z,100459.38
2023-05-19T09:22:30.950Z,100456.88
2023-05-19T09:26:43.820Z,100458.75
2023-05-19T09:31:02.458Z,100451.78
2023-05-19T09:35:17.524Z,100453.16
2023-05-19T09:39:30.758Z,100457.03
2023-05-19T09:43:43.182Z,100441.38
2023-05-19T09:47:55.575Z,100444.72
2023-05-19T09:52:10.066Z,100430.81
2023-05-19T09:56:26.402Z,100427.13
2023-05-19T10:00:39.695Z,100429.13
2023-05-19T10:04:53.832Z,100421.81
2023-05-19T10:09:06.748Z,100410.34
2023-05-19T10:13:20.237Z,100399.91
2023-05-19T10:17:34.696Z,100397.72
2023-05-19T10:21:47.485Z,100384.81
2023-05-19T10:26:02.296Z,100385.53
2023-05-19T10:30:19.382Z,100384.25
2023-05-19T10:34:59.491Z,100378.66
2023-05-19T10:39:25.402Z,100365.72
2023-05-19T10:44:22.305Z,100367.25
2023-05-19T10:48:36.914Z,100352.50
2023-05-19T10:52:58.642Z,100344.63
2023-05-19T10:57:17.897Z,100355.38
2023-05-19T11:01:33.549Z,100338.53
2023-05-19T11:05:46.764Z,100336.88
2023-05-19T11:09:59.136Z,100342.97
2023-05-19T11:14:14.974Z,100335.75
2023-05-19T11:18:27.415Z,100334.75
2023-05-19T11:22:40.678Z,100337.59
2023-05-19T11:26:55.310Z,100335.13
2023-05-19T11:31:10.555Z,100335.81
2023-05-19T11:35:24.649Z,100342.59
2023-05-19T11:39:37.502Z,100338.16
2023-05-19T11:43:50.002Z,100331.34
2023-05-19T11:48:07.191Z,100351.38
2023-05-19T11:52:23.303Z,100343.63
2023-05-19T11:56:41.016Z,100354.75
2023-05-19T12:00:54.517Z,100346.44
2023-05-19T12:05:07.264Z,100354.97
2023-05-19T12:09:22.716Z,100346.50
2023-05-19T12:13:36.116Z,100351.56
2023-05-19T12:17:56.942Z,100354.16
2023-05-19T12:22:10.181Z,100349.06
2023-05-19T12:26:23.028Z,100339.75
2023-05-19T12:30:35.779Z,100336.41
2023-05-19T12:34:48.482Z,100329.13
2023-05-19T12:39:01.027Z,100324.72
2023-05-19T12:43:23.441Z,100320.41
2023-05-19T12:47:36.738Z,100326.75
2023-05-19T12:51:53.777Z,100321.66
2023-05-19T12:56:16.742Z,100312.94
2023-05-19T13:00:31.318Z,100308.63
2023-05-19T13:04:44.858Z,100302.44
2023-05-19T13:08:57.484Z,100287.28
2023-05-19T13:13:10.629Z,100292.16
2023-05-19T13:17:24.121Z,100291.00
2023-05-19T13:21:38.232Z,100292.44
2023-05-19T13:25:51.783Z,100298.81
2023-05-19T13:30:05.659Z,100303.69
2023-05-19T13:34:20.271Z,100298.34
2023-05-19T13:38:32.677Z,100302.00
2023-05-19T13:42:45.718Z,100296.59
2023-05-19T13:46:58.198Z,100288.25
2023-05-19T13:51:10.710Z,100282.88
2023-05-19T13:55:23.940Z,100287.19
2023-05-19T13:59:45.711Z,100279.41
2023-05-19T14:04:05.663Z,100281.50
2023-05-19T14:08:19.213Z,100277.34
2023-05-19T14:12:41.504Z,100269.22
2023-05-19T14:16:59.843Z,100270.50
2023-05-19T14:21:12.505Z,100269.81
2023-05-19T14:25:24.917Z,100255.72
2023-05-19T14:29:37.347Z,100253.28
2023-05-19T14:33:49.842Z,100257.50
2023-05-19T14:38:02.322Z,100259.03
2023-05-19T14:42:15.007Z,100250.59
2023-05-19T14:46:27.500Z,100249.91
2023-05-19T14:50:39.981Z,100234.06
2023-05-19T14:54:52.488Z,100229.69
2023-05-19T14:59:05.191Z,100228.97
2023-05-19T15:03:17.685Z,100230.56
2023-05-19T15:07:30.219Z,100235.50
2023-05-19T15:11:42.630Z,100230.84
2023-05-19T15:16:08.445Z,100236.59
2023-05-19T15:20:29.579Z,100236.91
2023-05-19T15:24:42.178Z,100233.53
2023-05-19T15:28:54.777Z,100236.03
2023-05-19T15:33:07.402Z,100241.88
2023-05-19T15:37:19.914Z,100242.16
2023-05-19T15:41:32.376Z,100246.81
2023-05-19T15:45:45.171Z,100248.28
2023-05-19T15:49:57.697Z,100247.00
2023-05-19T15:54:10.525Z,100248.56
2023-05-19T15:58:22.987Z,100259.19
2023-05-19T16:02:36.278Z,100257.16
2023-05-19T16:06:48.792Z,100258.69
2023-05-19T16:11:01.370Z,100266.34
2023-05-19T16:15:13.786Z,100277.31
2023-05-19T16:19:27.145Z,100282.19
2023-05-19T16:23:39.718Z,100286.31
2023-05-19T16:27:52.936Z,100281.81
2023-05-19T16:32:05.920Z,100270.38
2023-05-19T16:36:18.604Z,100273.28
2023-05-19T16:40:31.235Z,100271.44
2023-05-19T16:44:43.824Z,100276.75
2023-05-19T16:48:56.461Z,100281.50
2023-05-19T16:53:09.084Z,100286.09
2023-05-19T16:57:21.636Z,100289.56
2023-05-19T17:01:34.308Z,100299.31
2023-05-19T17:05:46.875Z,100300.66
2023-05-19T17:09:59.614Z,100300.13
2023-05-19T17:14:12.282Z,100302.50
2023-05-19T17:18:24.866Z,100304.91
2023-05-19T17:22:37.430Z,100308.38
2023-05-19T17:26:49.833Z,100299.88
2023-05-19T17:31:02.336Z,100297.97
2023-05-19T17:35:14.976Z,100313.47
2023-05-19T17:39:27.403Z,100313.63
2023-05-19T17:43:41.326Z,100313.16
2023-05-19T17:47:53.933Z,100309.00
2023-05-19T17:52:07.176Z,100315.19
2023-05-19T17:56:22.813Z,100312.09
2023-05-19T18:00:35.689Z,100319.75
2023-05-19T18:04:48.485Z,100317.47
2023-05-19T18:09:02.903Z,100312.75
2023-05-19T18:13:15.483Z,100320.41
2023-05-19T18:17:27.987Z,100329.41
2023-05-19T18:21:40.545Z,100331.72
2023-05-19T18:25:53.804Z,100332.19
2023-05-19T18:30:07.108Z,100319.94
2023-05-19T18:34:19.540Z,100332.84
2023-05-19T18:38:31.996Z,100329.78
2023-05-19T18:42:44.667Z,100327.97
2023-05-19T18:46:57.090Z,100330.78
2023-05-19T18:51:10.087Z,100338.50
2023-05-19T18:55:23.315Z,100343.06
2023-05-19T18:59:35.932Z,100340.47
2023-05-19T19:03:50.757Z,100343.28
2023-05-19T19:08:05.830Z,100349.41
2023-05-19T19:12:19.080Z,100340.31
2023-05-19T19:16:32.871Z,100344.94
2023-05-19T19:20:45.651Z,100345.19
2023-05-19T19:24:58.004Z,100348.22
2023-05-19T19:29:10.413Z,100337.47
2023-05-19T19:33:22.838Z,100347.66
2023-05-19T19:37:35.382Z,100350.84
2023-05-19T19:41:47.861Z,100354.94
2023-05-19T19:46:01.679Z,100348.00
2023-05-19T19:50:14.487Z,100347.59
2023-05-19T19:54:27.689Z,100349.22
2023-05-19T19:58:43.202Z,100348.44
2023-05-19T20:03:05.001Z,100352.41
2023-05-19T20:07:21.240Z,100355.72
2023-05-19T20:11:33.782Z,100347.28
2023-05-19T20:15:47.500Z,100354.06
2023-05-19T20:20:02.533Z,100353.81
2023-05-19T20:24:14.871Z,100359.16
2023-05-19T20:28:27.385Z,100355.63
2023-05-19T20:32:40.401Z,100356.91
2023-05-19T20:36:52.937Z,100356.19
2023-05-19T20:41:05.484Z,100352.31
2023-05-19T20:45:18.720Z,100347.16
2023-05-19T20:49:31.295Z,100347.34
2023-05-19T20:53:43.820Z,100349.50
2023-05-19T20:57:56.362Z,100344.38
2023-05-19T21:02:08.754Z,100341.53
2023-05-19T21:06:21.330Z,100340.22
2023-05-19T21:10:34.012Z,100345.22
2023-05-19T21:14:46.536Z,100346.06
2023-05-19T21:18:59.002Z,100340.00
2023-05-19T21:23:11.531Z,100347.28
2023-05-19T21:27:24.125Z,100337.53
2023-05-19T21:31:37.084Z,100335.22
2023-05-19T21:35:49.535Z,100326.81
2023-05-19T21:40:02.062Z,100329.13
2023-05-19T21:44:14.551Z,100323.16
2023-05-19T21:48:26.876Z,100315.34
2023-05-19T21:52:39.288Z,100314.69
2023-05-19T21:56:51.788Z,100314.13
2023-05-19T22:01:04.849Z,100308.84
2023-05-19T22:05:17.627Z,100301.53
2023-05-19T22:09:30.013Z,100308.66
2023-05-19T22:13:42.408Z,100304.53
2023-05-19T22:17:54.779Z,100310.97
2023-05-19T22:22:13.847Z,100300.53
2023-05-19T22:26:27.399Z,100302.16
2023-05-19T22:30:41.049Z,100297.44
2023-05-19T22:34:53.725Z,100297.94
2023-05-19T22:39:06.347Z,100290.25
2023-05-19T22:43:18.760Z,100285.78
2023-05-19T22:47:31.269Z,100287.59
2023-05-19T22:51:43.685Z,100286.66
2023-05-19T22:55:56.418Z,100283.50
2023-05-19T23:00:10.023Z,100282.25
2023-05-19T23:04:22.883Z,100280.94
2023-05-19T23:08:35.392Z,100276.06
2023-05-19T23:12:47.839Z,100266.97
2023-05-19T23:17:00.361Z,100261.69
2023-05-19T23:21:12.967Z,100259.31
2023-05-19T23:25:25.463Z,100249.47
2023-05-19T23:29:38.006Z,100243.75
2023-05-19T23:33:50.505Z,100222.34
2023-05-19T23:38:04.068Z,100218.72
2023-05-19T23:42:16.578Z,100219.03
2023-05-19T23:46:29.059Z,100217.09
2023-05-19T23:50:41.593Z,100220.03
2023-05-19T23:54:53.940Z,100222.53
2023-05-19T23:59:06.392Z,100212.41
